sensor_id;sensor_type;location;lat;lon;timestamp;pressure;altitude;pressure_sealevel;temperature;humidity
64835;BME280;51293;59.296;18.006;2022-07-10T00:01:24;100513.63;;;14.07;64.79
64835;BME280;51293;59.296;18.006;2022-07-10T00:03:49;100515.75;;;14.05;65.28
64835;BME280;51293;59.296;18.006;2022-07-10T00:06:16;100514.09;;;14.04;64.73
64835;BME280;51293;59.296;18.006;2022-07-10T00:08:41;100510.56;;;14.03;65.00
64835;BME280;51293;59.296;18.006;2022-07-10T00:11:08;100506.72;;;13.99;65.75
64835;BME280;51293;59.296;18.006;2022-07-10T00:13:34;100505.31;;;13.97;65.28
64835;BME280;51293;59.296;18.006;2022-07-10T00:16:00;100505.59;;;13.95;64.85
64835;BME280;51293;59.296;18.006;2022-07-10T00:18:27;100508.84;;;13.92;65.10
64835;BME280;51293;59.296;18.006;2022-07-10T00:20:53;100510.41;;;13.88;65.52
64835;BME280;51293;59.296;18.006;2022-07-10T00:23:18;100510.69;;;13.87;65.58
64835;BME280;51293;59.296;18.006;2022-07-10T00:25:44;100510.06;;;13.80;65.78
64835;BME280;51293;59.296;18.006;2022-07-10T00:28:09;100503.25;;;13.77;65.54
64835;BME280;51293;59.296;18.006;2022-07-10T00:30:36;100510.53;;;13.71;65.68
64835;BME280;51293;59.296;18.006;2022-07-10T00:33:02;100503.63;;;13.64;66.19
64835;BME280;51293;59.296;18.006;2022-07-10T00:35:28;100507.16;;;13.59;66.08
64835;BME280;51293;59.296;18.006;2022-07-10T00:37:53;100511.44;;;13.55;66.09
64835;BME280;51293;59.296;18.006;2022-07-10T00:40:19;100506.44;;;13.47;66.23
64835;BME280;51293;59.296;18.006;2022-07-10T00:42:45;100510.50;;;13.44;66.79
64835;BME280;51293;59.296;18.006;2022-07-10T00:45:10;100503.91;;;13.40;66.86
64835;BME280;51293;59.296;18.006;2022-07-10T00:47:36;100510.41;;;13.34;67.13
64835;BME280;51293;59.296;18.006;2022-07-10T00:50:01;100514.66;;;13.25;66.62
64835;BME280;51293;59.296;18.006;2022-07-10T00:52:27;100503.19;;;13.23;66.92
64835;BME280;51293;59.296;18.006;2022-07-10T00:54:52;100504.25;;;13.22;67.24
64835;BME280;51293;59.296;18.006;2022-07-10T00:57:18;100506.41;;;13.20;67.48
64835;BME280;51293;59.296;18.006;2022-07-10T00:59:45;100500.97;;;13.20;67.57
64835;BME280;51293;59.296;18.006;2022-07-10T01:02:11;100504.09;;;13.12;67.99
64835;BME280;51293;59.296;18.006;2022-07-10T01:04:36;100504.63;;;13.09;68.42
64835;BME280;51293;59.296;18.006;2022-07-10T01:07:02;100509.47;;;13.07;68.13
64835;BME280;51293;59.296;18.006;2022-07-10T01:09:28;100517.41;;;13.08;68.03
64835;BME280;51293;59.296;18.006;2022-07-10T01:11:56;100513.59;;;13.09;67.58
64835;BME280;51293;59.296;18.006;2022-07-10T01:14:25;100507.81;;;13.06;67.87
64835;BME280;51293;59.296;18.006;2022-07-10T01:16:52;100506.69;;;13.02;68.11
64835;BME280;51293;59.296;18.006;2022-07-10T01:19:17;100501.91;;;13.09;67.87
64835;BME280;51293;59.296;18.006;2022-07-10T01:21:42;100509.47;;;13.07;67.76
64835;BME280;51293;59.296;18.006;2022-07-10T01:24:09;100504.03;;;13.07;68.15
64835;BME280;51293;59.296;18.006;2022-07-10T01:26:36;100511.38;;;13.06;67.87
64835;BME280;51293;59.296;18.006;2022-07-10T01:29:04;100510.53;;;13.06;68.11
64835;BME280;51293;59.296;18.006;2022-07-10T01:31:30;100510.88;;;13.09;67.77
64835;BME280;51293;59.296;18.006;2022-07-10T01:33:55;100514.72;;;13.13;67.67
64835;BME280;51293;59.296;18.006;2022-07-10T01:36:22;100522.63;;;13.15;67.53
64835;BME280;51293;59.296;18.006;2022-07-10T01:38:47;100521.50;;;13.11;67.82
64835;BME280;51293;59.296;18.006;2022-07-10T01:41:15;100519.59;;;13.11;68.00
64835;BME280;51293;59.296;18.006;2022-07-10T01:43:41;100521.31;;;13.17;67.64
64835;BME280;51293;59.296;18.006;2022-07-10T01:46:08;100524.53;;;13.14;67.72
64835;BME280;51293;59.296;18.006;2022-07-10T01:48:37;100521.31;;;13.17;67.41
64835;BME280;51293;59.296;18.006;2022-07-10T01:51:02;100527.09;;;13.21;67.30
64835;BME280;51293;59.296;18.006;2022-07-10T01:53:29;100519.00;;;13.26;67.51
64835;BME280;51293;59.296;18.006;2022-07-10T01:55:55;100520.09;;;13.25;67.62
64835;BME280;51293;59.296;18.006;2022-07-10T01:58:20;100516.22;;;13.21;67.64
64835;BME280;51293;59.296;18.006;2022-07-10T02:00:46;100519.84;;;13.27;67.74
64835;BME280;51293;59.296;18.006;2022-07-10T02:03:11;100516.56;;;13.25;68.16
64835;BME280;51293;59.296;18.006;2022-07-10T02:05:55;100515.72;;;13.24;68.85
64835;BME280;51293;59.296;18.006;2022-07-10T02:08:22;100514.31;;;13.21;69.22
64835;BME280;51293;59.296;18.006;2022-07-10T02:10:47;100510.78;;;13.21;69.24
64835;BME280;51293;59.296;18.006;2022-07-10T02:13:12;100518.34;;;13.19;69.40
64835;BME280;51293;59.296;18.006;2022-07-10T02:15:40;100515.88;;;13.17;69.70
64835;BME280;51293;59.296;18.006;2022-07-10T02:18:06;100515.88;;;13.17;69.77
64835;BME280;51293;59.296;18.006;2022-07-10T02:20:31;100510.09;;;13.14;69.73
64835;BME280;51293;59.296;18.006;2022-07-10T02:22:58;100516.38;;;13.14;70.03
64835;BME280;51293;59.296;18.006;2022-07-10T02:25:24;100514.69;;;13.08;69.83
64835;BME280;51293;59.296;18.006;2022-07-10T02:27:49;100512.19;;;13.07;70.03
64835;BME280;51293;59.296;18.006;2022-07-10T02:30:15;100513.22;;;13.01;70.29
64835;BME280;51293;59.296;18.006;2022-07-10T02:32:40;100514.22;;;12.94;70.53
64835;BME280;51293;59.296;18.006;2022-07-10T02:35:05;100513.91;;;12.91;70.74
64835;BME280;51293;59.296;18.006;2022-07-10T02:37:31;100509.78;;;12.88;71.08
64835;BME280;51293;59.296;18.006;2022-07-10T02:39:56;100512.09;;;12.80;71.39
64835;BME280;51293;59.296;18.006;2022-07-10T02:42:22;100511.47;;;12.73;71.95
64835;BME280;51293;59.296;18.006;2022-07-10T02:44:47;100507.03;;;12.67;72.26
64835;BME280;51293;59.296;18.006;2022-07-10T02:47:12;100503.97;;;12.63;72.64
64835;BME280;51293;59.296;18.006;2022-07-10T02:49:38;100511.31;;;12.62;72.65
64835;BME280;51293;59.296;18.006;2022-07-10T02:52:03;100513.38;;;12.55;73.11
64835;BME280;51293;59.296;18.006;2022-07-10T02:54:29;100511.66;;;12.49;73.74
64835;BME280;51293;59.296;18.006;2022-07-10T02:56:55;100511.59;;;12.44;74.03
64835;BME280;51293;59.296;18.006;2022-07-10T02:59:20;100511.03;;;12.42;74.31
64835;BME280;51293;59.296;18.006;2022-07-10T03:01:46;100511.25;;;12.41;74.29
64835;BME280;51293;59.296;18.006;2022-07-10T03:04:11;100500.31;;;12.35;74.87
64835;BME280;51293;59.296;18.006;2022-07-10T03:06:37;100516.25;;;12.32;74.91
64835;BME280;51293;59.296;18.006;2022-07-10T03:09:02;100513.81;;;12.30;75.05
64835;BME280;51293;59.296;18.006;2022-07-10T03:11:27;100514.31;;;12.27;75.06
64835;BME280;51293;59.296;18.006;2022-07-10T03:13:53;100512.91;;;12.25;74.92
64835;BME280;51293;59.296;18.006;2022-07-10T03:16:18;100516.63;;;12.19;75.30
64835;BME280;51293;59.296;18.006;2022-07-10T03:18:44;100514.16;;;12.17;75.46
64835;BME280;51293;59.296;18.006;2022-07-10T03:21:10;100521.13;;;12.13;75.54
64835;BME280;51293;59.296;18.006;2022-07-10T03:23:36;100521.94;;;12.14;75.72
64835;BME280;51293;59.296;18.006;2022-07-10T03:26:01;100516.66;;;12.07;75.72
64835;BME280;51293;59.296;18.006;2022-07-10T03:28:27;100521.53;;;12.05;75.95
64835;BME280;51293;59.296;18.006;2022-07-10T03:30:52;100522.91;;;12.07;76.20
64835;BME280;51293;59.296;18.006;2022-07-10T03:33:18;100519.88;;;12.04;76.53
64835;BME280;51293;59.296;18.006;2022-07-10T03:35:43;100512.00;;;12.02;76.44
64835;BME280;51293;59.296;18.006;2022-07-10T03:38:08;100524.19;;;12.00;76.62
64835;BME280;51293;59.296;18.006;2022-07-10T03:40:34;100517.56;;;11.96;76.67
64835;BME280;51293;59.296;18.006;2022-07-10T03:42:59;100520.38;;;12.01;77.15
64835;BME280;51293;59.296;18.006;2022-07-10T03:45:25;100521.28;;;12.06;76.84
64835;BME280;51293;59.296;18.006;2022-07-10T03:47:50;100531.81;;;12.03;76.71
64835;BME280;51293;59.296;18.006;2022-07-10T03:50:16;100518.56;;;12.06;76.74
64835;BME280;51293;59.296;18.006;2022-07-10T03:52:41;100525.63;;;12.07;76.13
64835;BME280;51293;59.296;18.006;2022-07-10T03:55:07;100524.25;;;12.05;76.40
64835;BME280;51293;59.296;18.006;2022-07-10T03:57:32;100520.72;;;12.04;76.61
64835;BME280;51293;59.296;18.006;2022-07-10T04:00:16;100525.31;;;12.04;77.00
64835;BME280;51293;59.296;18.006;2022-07-10T04:02:42;100522.59;;;12.04;76.53
64835;BME280;51293;59.296;18.006;2022-07-10T04:05:08;100521.78;;;12.03;77.03
64835;BME280;51293;59.296;18.006;2022-07-10T04:07:34;100528.59;;;12.06;77.09
64835;BME280;51293;59.296;18.006;2022-07-10T04:10:00;100524.81;;;12.07;76.88
64835;BME280;51293;59.296;18.006;2022-07-10T04:12:26;100530.25;;;12.07;77.21
64835;BME280;51293;59.296;18.006;2022-07-10T04:14:51;100536.28;;;12.09;76.71
64835;BME280;51293;59.296;18.006;2022-07-10T04:17:19;100526.91;;;12.17;76.50
64835;BME280;51293;59.296;18.006;2022-07-10T04:19:45;100538.59;;;12.17;76.47
64835;BME280;51293;59.296;18.006;2022-07-10T04:22:11;100536.69;;;12.18;76.54
64835;BME280;51293;59.296;18.006;2022-07-10T04:24:37;100537.50;;;12.18;76.59
64835;BME280;51293;59.296;18.006;2022-07-10T04:27:02;100544.09;;;12.22;76.47
64835;BME280;51293;59.296;18.006;2022-07-10T04:29:28;100541.38;;;12.22;76.48
64835;BME280;51293;59.296;18.006;2022-07-10T04:31:53;100537.09;;;12.26;76.03
64835;BME280;51293;59.296;18.006;2022-07-10T04:34:19;100544.75;;;12.29;76.19
64835;BME280;51293;59.296;18.006;2022-07-10T04:36:45;100546.50;;;12.35;75.92
64835;BME280;51293;59.296;18.006;2022-07-10T04:39:10;100545.66;;;12.35;75.85
64835;BME280;51293;59.296;18.006;2022-07-10T04:41:35;100547.31;;;12.36;76.02
64835;BME280;51293;59.296;18.006;2022-07-10T04:44:01;100550.34;;;12.40;75.62
64835;BME280;51293;59.296;18.006;2022-07-10T04:46:26;100549.13;;;12.47;75.88
64835;BME280;51293;59.296;18.006;2022-07-10T04:48:52;100551.91;;;12.52;75.47
64835;BME280;51293;59.296;18.006;2022-07-10T04:51:18;100545.25;;;12.60;75.19
64835;BME280;51293;59.296;18.006;2022-07-10T04:53:44;100546.13;;;12.65;74.99
64835;BME280;51293;59.296;18.006;2022-07-10T04:56:09;100555.28;;;12.76;74.56
64835;BME280;51293;59.296;18.006;2022-07-10T04:58:34;100552.31;;;12.78;73.82
64835;BME280;51293;59.296;18.006;2022-07-10T05:01:00;100562.50;;;12.87;73.87
64835;BME280;51293;59.296;18.006;2022-07-10T05:03:25;100565.31;;;12.92;73.56
64835;BME280;51293;59.296;18.006;2022-07-10T05:05:51;100563.41;;;12.93;72.85
64835;BME280;51293;59.296;18.006;2022-07-10T05:08:16;100561.75;;;12.92;72.69
64835;BME280;51293;59.296;18.006;2022-07-10T05:10:42;100565.34;;;12.98;73.08
64835;BME280;51293;59.296;18.006;2022-07-10T05:13:07;100568.72;;;13.05;72.54
64835;BME280;51293;59.296;18.006;2022-07-10T05:15:32;100569.63;;;13.10;72.33
64835;BME280;51293;59.296;18.006;2022-07-10T05:17:58;100562.38;;;13.16;72.70
64835;BME280;51293;59.296;18.006;2022-07-10T05:20:23;100564.16;;;13.27;71.73
64835;BME280;51293;59.296;18.006;2022-07-10T05:22:48;100558.84;;;13.37;70.97
64835;BME280;51293;59.296;18.006;2022-07-10T05:25:14;100561.00;;;13.57;70.42
64835;BME280;51293;59.296;18.006;2022-07-10T05:27:39;100559.25;;;13.73;69.71
64835;BME280;51293;59.296;18.006;2022-07-10T05:30:05;100574.44;;;13.91;67.75
64835;BME280;51293;59.296;18.006;2022-07-10T05:32:31;100571.00;;;14.00;67.45
64835;BME280;51293;59.296;18.006;2022-07-10T05:34:59;100568.94;;;14.13;67.46
64835;BME280;51293;59.296;18.006;2022-07-10T05:37:25;100566.88;;;14.25;67.48
64835;BME280;51293;59.296;18.006;2022-07-10T05:39:50;100567.50;;;14.32;67.04
64835;BME280;51293;59.296;18.006;2022-07-10T05:42:15;100568.03;;;14.34;65.86
64835;BME280;51293;59.296;18.006;2022-07-10T05:44:41;100565.00;;;14.30;64.54
64835;BME280;51293;59.296;18.006;2022-07-10T05:47:06;100574.25;;;14.29;63.69
64835;BME280;51293;59.296;18.006;2022-07-10T05:49:32;100568.31;;;14.32;63.88
64835;BME280;51293;59.296;18.006;2022-07-10T05:51:58;100568.06;;;14.39;63.36
64835;BME280;51293;59.296;18.006;2022-07-10T05:54:23;100574.66;;;14.43;63.76
64835;BME280;51293;59.296;18.006;2022-07-10T05:56:49;100572.75;;;14.44;63.72
64835;BME280;51293;59.296;18.006;2022-07-10T05:59:14;100572.25;;;14.47;63.62
64835;BME280;51293;59.296;18.006;2022-07-10T06:01:40;100571.75;;;14.50;63.54
64835;BME280;51293;59.296;18.006;2022-07-10T06:04:05;100565.41;;;14.44;63.74
64835;BME280;51293;59.296;18.006;2022-07-10T06:06:31;100572.97;;;14.37;64.26
64835;BME280;51293;59.296;18.006;2022-07-10T06:08:56;100575.31;;;14.23;64.53
64835;BME280;51293;59.296;18.006;2022-07-10T06:11:21;100580.16;;;14.16;64.56
64835;BME280;51293;59.296;18.006;2022-07-10T06:13:47;100581.78;;;14.17;65.54
64835;BME280;51293;59.296;18.006;2022-07-10T06:16:12;100576.84;;;14.14;66.36
64835;BME280;51293;59.296;18.006;2022-07-10T06:18:38;100578.50;;;14.15;66.17
64835;BME280;51293;59.296;18.006;2022-07-10T06:21:03;100583.56;;;14.06;66.12
64835;BME280;51293;59.296;18.006;2022-07-10T06:23:29;100585.69;;;13.99;65.93
64835;BME280;51293;59.296;18.006;2022-07-10T06:25:54;100588.41;;;13.99;66.23
64835;BME280;51293;59.296;18.006;2022-07-10T06:28:20;100595.50;;;14.00;66.43
64835;BME280;51293;59.296;18.006;2022-07-10T06:30:46;100588.16;;;14.01;66.93
64835;BME280;51293;59.296;18.006;2022-07-10T06:33:12;100591.75;;;14.06;66.10
64835;BME280;51293;59.296;18.006;2022-07-10T06:35:37;100592.31;;;14.09;66.54
64835;BME280;51293;59.296;18.006;2022-07-10T06:38:03;100592.88;;;14.11;66.46
64835;BME280;51293;59.296;18.006;2022-07-10T06:40:29;100588.09;;;14.23;65.98
64835;BME280;51293;59.296;18.006;2022-07-10T06:42:55;100583.22;;;14.25;66.27
64835;BME280;51293;59.296;18.006;2022-07-10T06:45:20;100591.19;;;14.31;65.96
64835;BME280;51293;59.296;18.006;2022-07-10T06:47:46;100606.75;;;14.36;65.79
64835;BME280;51293;59.296;18.006;2022-07-10T06:50:28;100589.75;;;14.51;66.06
64835;BME280;51293;59.296;18.006;2022-07-10T06:52:57;100597.19;;;14.60;66.06
64835;BME280;51293;59.296;18.006;2022-07-10T06:55:23;100592.53;;;14.61;65.83
64835;BME280;51293;59.296;18.006;2022-07-10T06:57:49;100594.03;;;14.74;66.06
64835;BME280;51293;59.296;18.006;2022-07-10T07:00:14;100593.56;;;14.87;66.08
64835;BME280;51293;59.296;18.006;2022-07-10T07:02:42;100593.66;;;15.02;64.16
64835;BME280;51293;59.296;18.006;2022-07-10T07:05:08;100593.19;;;15.15;63.37
64835;BME280;51293;59.296;18.006;2022-07-10T07:07:34;100594.03;;;15.16;63.44
64835;BME280;51293;59.296;18.006;2022-07-10T07:09:59;100597.31;;;15.18;62.35
64835;BME280;51293;59.296;18.006;2022-07-10T07:12:25;100601.41;;;15.21;61.42
64835;BME280;51293;59.296;18.006;2022-07-10T07:14:50;100603.91;;;15.27;62.12
64835;BME280;51293;59.296;18.006;2022-07-10T07:17:16;100592.72;;;15.29;61.11
64835;BME280;51293;59.296;18.006;2022-07-10T07:19:48;100599.50;;;15.21;61.97
64835;BME280;51293;59.296;18.006;2022-07-10T07:22:33;100599.25;;;15.28;62.00
64835;BME280;51293;59.296;18.006;2022-07-10T07:25:17;100604.22;;;15.36;61.84
64835;BME280;51293;59.296;18.006;2022-07-10T07:27:43;100597.97;;;15.40;61.41
64835;BME280;51293;59.296;18.006;2022-07-10T07:30:13;100603.66;;;15.39;61.76
64835;BME280;51293;59.296;18.006;2022-07-10T07:32:40;100597.66;;;15.32;61.13
64835;BME280;51293;59.296;18.006;2022-07-10T07:35:07;100593.22;;;15.21;61.97
64835;BME280;51293;59.296;18.006;2022-07-10T07:37:46;100593.22;;;15.21;61.71
64835;BME280;51293;59.296;18.006;2022-07-10T07:40:16;100594.34;;;15.25;62.33
64835;BME280;51293;59.296;18.006;2022-07-10T07:42:44;100598.22;;;15.39;60.69
64835;BME280;51293;59.296;18.006;2022-07-10T07:45:10;100590.66;;;15.51;59.28
64835;BME280;51293;59.296;18.006;2022-07-10T07:47:46;100605.47;;;15.70;59.80
64835;BME280;51293;59.296;18.006;2022-07-10T07:50:19;100593.22;;;15.78;56.57
64835;BME280;51293;59.296;18.006;2022-07-10T07:52:46;100593.28;;;15.93;56.70
64835;BME280;51293;59.296;18.006;2022-07-10T07:55:13;100600.69;;;16.08;56.43
64835;BME280;51293;59.296;18.006;2022-07-10T07:57:40;100591.44;;;16.24;55.84
64835;BME280;51293;59.296;18.006;2022-07-10T08:00:07;100593.88;;;16.46;56.12
64835;BME280;51293;59.296;18.006;2022-07-10T08:02:34;100585.97;;;16.60;55.59
64835;BME280;51293;59.296;18.006;2022-07-10T08:04:59;100604.59;;;16.83;55.68
64835;BME280;51293;59.296;18.006;2022-07-10T08:07:55;100599.63;;;16.96;54.27
64835;BME280;51293;59.296;18.006;2022-07-10T08:10:23;100591.16;;;16.67;54.46
64835;BME280;51293;59.296;18.006;2022-07-10T08:12:49;100605.41;;;16.64;54.13
64835;BME280;51293;59.296;18.006;2022-07-10T08:15:17;100610.84;;;16.43;54.49
64835;BME280;51293;59.296;18.006;2022-07-10T08:17:44;100604.00;;;16.41;54.96
64835;BME280;51293;59.296;18.006;2022-07-10T08:20:12;100605.91;;;16.15;55.17
64835;BME280;51293;59.296;18.006;2022-07-10T08:22:39;100626.38;;;16.07;56.20
64835;BME280;51293;59.296;18.006;2022-07-10T08:25:06;100621.16;;;16.00;56.92
64835;BME280;51293;59.296;18.006;2022-07-10T08:27:31;100622.28;;;16.15;56.51
64835;BME280;51293;59.296;18.006;2022-07-10T08:29:57;100617.97;;;16.60;54.40
64835;BME280;51293;59.296;18.006;2022-07-10T08:32:22;100612.19;;;17.17;53.29
64835;BME280;51293;59.296;18.006;2022-07-10T08:34:48;100614.28;;;17.56;51.90
64835;BME280;51293;59.296;18.006;2022-07-10T08:37:14;100612.16;;;18.02;49.74
64835;BME280;51293;59.296;18.006;2022-07-10T08:39:39;100603.94;;;18.41;49.19
64835;BME280;51293;59.296;18.006;2022-07-10T08:42:06;100618.84;;;18.30;48.02
64835;BME280;51293;59.296;18.006;2022-07-10T08:44:33;100622.00;;;18.03;48.03
64835;BME280;51293;59.296;18.006;2022-07-10T08:46:58;100624.25;;;17.96;48.42
64835;BME280;51293;59.296;18.006;2022-07-10T08:49:27;100624.63;;;17.79;49.12
64835;BME280;51293;59.296;18.006;2022-07-10T08:52:08;100621.88;;;17.79;50.01
64835;BME280;51293;59.296;18.006;2022-07-10T08:54:34;100632.88;;;17.59;50.33
64835;BME280;51293;59.296;18.006;2022-07-10T08:57:02;100627.69;;;17.52;50.88
64835;BME280;51293;59.296;18.006;2022-07-10T08:59:29;100638.94;;;17.46;51.11
64835;BME280;51293;59.296;18.006;2022-07-10T09:01:55;100634.03;;;17.42;52.30
64835;BME280;51293;59.296;18.006;2022-07-10T09:04:22;100643.66;;;17.25;51.57
64835;BME280;51293;59.296;18.006;2022-07-10T09:06:50;100636.88;;;16.97;51.91
64835;BME280;51293;59.296;18.006;2022-07-10T09:09:15;100643.13;;;17.02;52.10
64835;BME280;51293;59.296;18.006;2022-07-10T09:11:41;100643.97;;;16.98;52.05
64835;BME280;51293;59.296;18.006;2022-07-10T09:14:11;100644.75;;;17.03;52.76
64835;BME280;51293;59.296;18.006;2022-07-10T09:16:40;100656.56;;;16.89;52.05
64835;BME280;51293;59.296;18.006;2022-07-10T09:19:20;100646.97;;;16.91;51.45
64835;BME280;51293;59.296;18.006;2022-07-10T09:21:48;100640.41;;;16.92;50.73
64835;BME280;51293;59.296;18.006;2022-07-10T09:24:14;100644.81;;;16.88;50.57
64835;BME280;51293;59.296;18.006;2022-07-10T09:26:42;100651.63;;;16.85;50.88
64835;BME280;51293;59.296;18.006;2022-07-10T09:29:09;100644.50;;;16.95;50.48
64835;BME280;51293;59.296;18.006;2022-07-10T09:31:55;100649.97;;;17.10;50.79
64835;BME280;51293;59.296;18.006;2022-07-10T09:37:26;100658.44;;;17.24;50.58
64835;BME280;51293;59.296;18.006;2022-07-10T09:40:03;100654.28;;;17.47;51.13
64835;BME280;51293;59.296;18.006;2022-07-10T09:42:36;100658.88;;;17.66;50.24
64835;BME280;51293;59.296;18.006;2022-07-10T09:47:37;100661.78;;;17.95;48.34
64835;BME280;51293;59.296;18.006;2022-07-10T09:50:03;100656.41;;;18.30;47.46
64835;BME280;51293;59.296;18.006;2022-07-10T09:52:29;100665.84;;;19.21;47.36
64835;BME280;51293;59.296;18.006;2022-07-10T09:54:55;100658.66;;;19.54;44.55
64835;BME280;51293;59.296;18.006;2022-07-10T09:57:23;100662.47;;;19.58;44.88
64835;BME280;51293;59.296;18.006;2022-07-10T09:59:53;100662.47;;;19.58;45.62
64835;BME280;51293;59.296;18.006;2022-07-10T10:02:19;100663.59;;;19.52;44.57
64835;BME280;51293;59.296;18.006;2022-07-10T10:04:46;100665.31;;;19.19;44.81
64835;BME280;51293;59.296;18.006;2022-07-10T10:07:13;100668.09;;;19.43;45.88
64835;BME280;51293;59.296;18.006;2022-07-10T10:09:50;100671.69;;;19.91;44.92
64835;BME280;51293;59.296;18.006;2022-07-10T10:12:35;100663.91;;;19.74;44.24
64835;BME280;51293;59.296;18.006;2022-07-10T10:15:05;100671.00;;;19.51;44.03
64835;BME280;51293;59.296;18.006;2022-07-10T10:17:32;100669.53;;;19.88;44.33
64835;BME280;51293;59.296;18.006;2022-07-10T10:20:00;100674.91;;;19.74;44.17
64835;BME280;51293;59.296;18.006;2022-07-10T10:22:45;100676.16;;;19.87;45.09
64835;BME280;51293;59.296;18.006;2022-07-10T10:25:13;100672.09;;;20.03;44.88
64835;BME280;51293;59.296;18.006;2022-07-10T10:27:39;100677.66;;;20.17;45.98
64835;BME280;51293;59.296;18.006;2022-07-10T10:30:05;100682.13;;;20.13;47.12
64835;BME280;51293;59.296;18.006;2022-07-10T10:32:31;100686.31;;;19.86;46.01
64835;BME280;51293;59.296;18.006;2022-07-10T10:34:58;100683.00;;;19.36;46.78
64835;BME280;51293;59.296;18.006;2022-07-10T10:37:36;100691.00;;;19.33;47.52
64835;BME280;51293;59.296;18.006;2022-07-10T10:40:03;100689.47;;;19.22;47.92
64835;BME280;51293;59.296;18.006;2022-07-10T10:42:39;100686.53;;;19.66;47.53
64835;BME280;51293;59.296;18.006;2022-07-10T10:48:05;100698.66;;;19.89;45.28
64835;BME280;51293;59.296;18.006;2022-07-10T10:50:38;100703.56;;;19.92;45.09
64835;BME280;51293;59.296;18.006;2022-07-10T10:53:04;100707.81;;;20.03;44.92
64835;BME280;51293;59.296;18.006;2022-07-10T10:55:30;100694.78;;;19.90;45.18
64835;BME280;51293;59.296;18.006;2022-07-10T10:58:14;100703.16;;;20.23;45.95
64835;BME280;51293;59.296;18.006;2022-07-10T11:00:40;100713.88;;;20.99;45.99
64835;BME280;51293;59.296;18.006;2022-07-10T11:03:21;100708.75;;;21.72;42.92
64835;BME280;51293;59.296;18.006;2022-07-10T11:05:48;100708.22;;;22.25;42.52
64835;BME280;51293;59.296;18.006;2022-07-10T11:08:37;100713.81;;;22.47;41.09
64835;BME280;51293;59.296;18.006;2022-07-10T11:13:59;100716.16;;;22.54;40.55
64835;BME280;51293;59.296;18.006;2022-07-10T11:16:25;100712.91;;;22.52;40.16
64835;BME280;51293;59.296;18.006;2022-07-10T11:18:54;100707.84;;;22.04;40.84
64835;BME280;51293;59.296;18.006;2022-07-10T11:21:23;100705.47;;;21.83;41.22
64835;BME280;51293;59.296;18.006;2022-07-10T11:24:57;100702.63;;;22.16;41.46
64835;BME280;51293;59.296;18.006;2022-07-10T11:30:00;100706.81;;;21.86;42.33
64835;BME280;51293;59.296;18.006;2022-07-10T11:32:26;100711.91;;;21.93;40.89
64835;BME280;51293;59.296;18.006;2022-07-10T11:34:52;100720.19;;;21.19;42.03
64835;BME280;51293;59.296;18.006;2022-07-10T11:37:17;100735.47;;;21.25;43.09
64835;BME280;51293;59.296;18.006;2022-07-10T11:39:43;100730.63;;;21.03;44.08
64835;BME280;51293;59.296;18.006;2022-07-10T11:42:09;100728.56;;;20.76;43.96
64835;BME280;51293;59.296;18.006;2022-07-10T11:44:34;100721.72;;;20.36;44.91
64835;BME280;51293;59.296;18.006;2022-07-10T11:47:00;100725.03;;;19.90;46.05
64835;BME280;51293;59.296;18.006;2022-07-10T11:49:27;100731.22;;;19.77;47.01
64835;BME280;51293;59.296;18.006;2022-07-10T11:51:53;100733.63;;;19.54;47.67
64835;BME280;51293;59.296;18.006;2022-07-10T11:54:19;100738.34;;;19.20;48.65
64835;BME280;51293;59.296;18.006;2022-07-10T11:56:49;100733.53;;;19.01;49.19
64835;BME280;51293;59.296;18.006;2022-07-10T11:59:17;100737.50;;;18.85;49.58
64835;BME280;51293;59.296;18.006;2022-07-10T12:01:46;100744.72;;;18.76;51.56
64835;BME280;51293;59.296;18.006;2022-07-10T12:04:14;100743.25;;;18.39;52.37
64835;BME280;51293;59.296;18.006;2022-07-10T12:06:42;100740.00;;;18.32;52.95
64835;BME280;51293;59.296;18.006;2022-07-10T12:11:39;100738.44;;;18.21;52.15
64835;BME280;51293;59.296;18.006;2022-07-10T12:14:09;100739.81;;;18.13;53.07
64835;BME280;51293;59.296;18.006;2022-07-10T12:16:35;100740.88;;;18.17;51.64
64835;BME280;51293;59.296;18.006;2022-07-10T12:19:01;100742.22;;;18.25;51.27
64835;BME280;51293;59.296;18.006;2022-07-10T12:21:27;100740.59;;;18.29;50.94
64835;BME280;51293;59.296;18.006;2022-07-10T12:23:53;100750.16;;;18.27;51.56
64835;BME280;51293;59.296;18.006;2022-07-10T12:26:18;100743.63;;;18.17;51.89
64835;BME280;51293;59.296;18.006;2022-07-10T12:28:56;100755.41;;;18.18;51.36
64835;BME280;51293;59.296;18.006;2022-07-10T12:31:26;100748.22;;;18.32;50.66
64835;BME280;51293;59.296;18.006;2022-07-10T12:33:54;100750.69;;;18.34;50.25
64835;BME280;51293;59.296;18.006;2022-07-10T12:36:20;100742.84;;;18.61;50.26
64835;BME280;51293;59.296;18.006;2022-07-10T12:38:53;100749.50;;;18.99;50.07
64835;BME280;51293;59.296;18.006;2022-07-10T12:41:19;100734.44;;;19.26;49.96
64835;BME280;51293;59.296;18.006;2022-07-10T12:43:48;100746.09;;;19.42;47.66
64835;BME280;51293;59.296;18.006;2022-07-10T12:46:23;100743.78;;;19.83;48.10
64835;BME280;51293;59.296;18.006;2022-07-10T12:49:09;100748.34;;;20.16;46.94
64835;BME280;51293;59.296;18.006;2022-07-10T12:51:42;100746.97;;;20.38;45.58
64835;BME280;51293;59.296;18.006;2022-07-10T12:54:38;100743.03;;;21.00;44.15
64835;BME280;51293;59.296;18.006;2022-07-10T12:57:04;100742.66;;;21.72;42.48
64835;BME280;51293;59.296;18.006;2022-07-10T12:59:33;100732.31;;;22.83;40.38